sensor_id;sensor_type;location;lat;lon;timestamp;P1;durP1;ratioP1;P2;durP2;ratioP2
38499;SDS011;24269;51.894;4.622;2023-02-28T00:00:49;5.50;;;1.90;;
38499;SDS011;24269;51.894;4.622;2023-02-28T00:03:15;3.25;;;1.75;;
38499;SDS011;24269;51.894;4.622;2023-02-28T00:05:41;3.33;;;1.77;;
38499;SDS011;24269;51.894;4.622;2023-02-28T00:08:07;3.90;;;1.58;;
38499;SDS011;24269;51.894;4.622;2023-02-28T00:10:33;5.07;;;1.70;;
38499;SDS011;24269;51.894;4.622;2023-02-28T00:13:00;5.68;;;2.05;;
38499;SDS011;24269;51.894;4.622;2023-02-28T00:15:29;6.30;;;1.90;;
38499;SDS011;24269;51.894;4.622;2023-02-28T00:17:54;3.33;;;1.67;;
38499;SDS011;24269;51.894;4.622;2023-02-28T00:20:20;3.05;;;1.63;;
38499;SDS011;24269;51.894;4.622;2023-02-28T00:22:47;2.88;;;1.70;;
38499;SDS011;24269;51.894;4.622;2023-02-28T00:25:16;1.92;;;1.40;;
38499;SDS011;24269;51.894;4.622;2023-02-28T00:27:43;2.72;;;1.65;;
38499;SDS011;24269;51.894;4.622;2023-02-28T00:30:14;3.35;;;1.40;;
38499;SDS011;24269;51.894;4.622;2023-02-28T00:32:42;3.75;;;1.98;;
38499;SDS011;24269;51.894;4.622;2023-02-28T00:35:08;3.30;;;1.52;;
38499;SDS011;24269;51.894;4.622;2023-02-28T00:37:35;3.55;;;1.48;;
38499;SDS011;24269;51.894;4.622;2023-02-28T00:40:01;1.98;;;1.25;;
38499;SDS011;24269;51.894;4.622;2023-02-28T00:42:29;4.82;;;1.77;;
38499;SDS011;24269;51.894;4.622;2023-02-28T00:44:55;3.10;;;1.70;;
38499;SDS011;24269;51.894;4.622;2023-02-28T00:47:21;7.60;;;2.05;;
38499;SDS011;24269;51.894;4.622;2023-02-28T00:49:46;3.22;;;1.65;;
38499;SDS011;24269;51.894;4.622;2023-02-28T00:52:12;4.35;;;1.58;;
38499;SDS011;24269;51.894;4.622;2023-02-28T00:54:37;3.65;;;1.48;;
38499;SDS011;24269;51.894;4.622;2023-02-28T00:57:03;4.97;;;1.60;;
38499;SDS011;24269;51.894;4.622;2023-02-28T00:59:29;3.25;;;1.45;;
38499;SDS011;24269;51.894;4.622;2023-02-28T01:01:54;3.80;;;1.63;;
38499;SDS011;24269;51.894;4.622;2023-02-28T01:04:20;2.58;;;1.58;;
38499;SDS011;24269;51.894;4.622;2023-02-28T01:06:46;4.50;;;1.60;;
38499;SDS011;24269;51.894;4.622;2023-02-28T01:09:11;3.88;;;1.67;;
38499;SDS011;24269;51.894;4.622;2023-02-28T01:11:37;4.75;;;1.55;;
38499;SDS011;24269;51.894;4.622;2023-02-28T01:14:05;4.97;;;1.65;;
38499;SDS011;24269;51.894;4.622;2023-02-28T01:16:31;3.17;;;1.23;;
38499;SDS011;24269;51.894;4.622;2023-02-28T01:18:57;2.70;;;1.27;;
38499;SDS011;24269;51.894;4.622;2023-02-28T01:21:23;4.72;;;1.50;;
38499;SDS011;24269;51.894;4.622;2023-02-28T01:23:49;4.22;;;1.33;;
38499;SDS011;24269;51.894;4.622;2023-02-28T01:26:16;5.90;;;1.58;;
38499;SDS011;24269;51.894;4.622;2023-02-28T01:28:42;3.75;;;1.33;;
38499;SDS011;24269;51.894;4.622;2023-02-28T01:31:08;4.30;;;1.20;;
38499;SDS011;24269;51.894;4.622;2023-02-28T01:33:35;3.45;;;1.40;;
38499;SDS011;24269;51.894;4.622;2023-02-28T01:36:02;3.53;;;1.30;;
38499;SDS011;24269;51.894;4.622;2023-02-28T01:38:29;3.90;;;1.50;;
38499;SDS011;24269;51.894;4.622;2023-02-28T01:40:55;4.78;;;1.20;;
38499;SDS011;24269;51.894;4.622;2023-02-28T01:45:54;3.50;;;1.38;;
38499;SDS011;24269;51.894;4.622;2023-02-28T01:48:24;3.75;;;1.67;;
38499;SDS011;24269;51.894;4.622;2023-02-28T01:50:56;3.58;;;1.38;;
38499;SDS011;24269;51.894;4.622;2023-02-28T01:53:28;3.47;;;1.25;;
38499;SDS011;24269;51.894;4.622;2023-02-28T01:55:57;3.47;;;1.30;;
38499;SDS011;24269;51.894;4.622;2023-02-28T01:58:23;2.95;;;1.63;;
38499;SDS011;24269;51.894;4.622;2023-02-28T02:00:49;4.30;;;1.60;;
38499;SDS011;24269;51.894;4.622;2023-02-28T02:03:16;4.68;;;1.90;;
38499;SDS011;24269;51.894;4.622;2023-02-28T02:05:46;6.15;;;1.40;;
38499;SDS011;24269;51.894;4.622;2023-02-28T02:08:22;2.90;;;1.60;;
38499;SDS011;24269;51.894;4.622;2023-02-28T02:10:51;4.78;;;1.70;;
38499;SDS011;24269;51.894;4.622;2023-02-28T02:24:46;3.40;;;1.50;;
38499;SDS011;24269;51.894;4.622;2023-02-28T02:27:46;5.97;;;1.70;;
38499;SDS011;24269;51.894;4.622;2023-02-28T02:33:24;4.10;;;1.73;;
38499;SDS011;24269;51.894;4.622;2023-02-28T02:41:33;6.72;;;1.95;;
38499;SDS011;24269;51.894;4.622;2023-02-28T02:44:13;3.75;;;1.80;;
38499;SDS011;24269;51.894;4.622;2023-02-28T02:46:50;5.28;;;1.65;;
38499;SDS011;24269;51.894;4.622;2023-02-28T02:49:21;5.85;;;1.70;;
38499;SDS011;24269;51.894;4.622;2023-02-28T02:51:51;3.72;;;1.52;;
38499;SDS011;24269;51.894;4.622;2023-02-28T02:54:20;5.32;;;2.10;;
38499;SDS011;24269;51.894;4.622;2023-02-28T02:56:48;3.13;;;1.52;;
38499;SDS011;24269;51.894;4.622;2023-02-28T02:59:16;3.67;;;1.73;;
38499;SDS011;24269;51.894;4.622;2023-02-28T03:01:46;3.90;;;1.75;;
38499;SDS011;24269;51.894;4.622;2023-02-28T03:04:17;4.18;;;1.83;;
38499;SDS011;24269;51.894;4.622;2023-02-28T03:06:45;3.70;;;1.70;;
38499;SDS011;24269;51.894;4.622;2023-02-28T03:09:11;3.42;;;1.40;;
38499;SDS011;24269;51.894;4.622;2023-02-28T03:11:37;5.35;;;2.00;;
38499;SDS011;24269;51.894;4.622;2023-02-28T03:14:30;5.65;;;1.90;;
38499;SDS011;24269;51.894;4.622;2023-02-28T03:31:24;3.30;;;1.63;;
38499;SDS011;24269;51.894;4.622;2023-02-28T03:36:23;4.32;;;1.88;;
38499;SDS011;24269;51.894;4.622;2023-02-28T03:39:14;4.43;;;2.00;;
38499;SDS011;24269;51.894;4.622;2023-02-28T03:41:56;3.90;;;1.85;;
38499;SDS011;24269;51.894;4.622;2023-02-28T03:44:45;6.97;;;1.95;;
38499;SDS011;24269;51.894;4.622;2023-02-28T03:47:16;8.80;;;2.17;;
38499;SDS011;24269;51.894;4.622;2023-02-28T03:49:55;8.65;;;2.00;;
38499;SDS011;24269;51.894;4.622;2023-02-28T03:52:27;5.75;;;2.08;;
38499;SDS011;24269;51.894;4.622;2023-02-28T03:54:59;3.83;;;2.05;;
38499;SDS011;24269;51.894;4.622;2023-02-28T04:02:47;5.85;;;1.95;;
38499;SDS011;24269;51.894;4.622;2023-02-28T04:05:17;4.32;;;2.10;;
38499;SDS011;24269;51.894;4.622;2023-02-28T04:07:46;5.28;;;2.20;;
38499;SDS011;24269;51.894;4.622;2023-02-28T04:10:13;8.27;;;2.20;;
38499;SDS011;24269;51.894;4.622;2023-02-28T04:12:40;6.05;;;2.15;;
38499;SDS011;24269;51.894;4.622;2023-02-28T04:15:06;5.60;;;2.22;;
38499;SDS011;24269;51.894;4.622;2023-02-28T04:17:32;4.43;;;2.20;;
38499;SDS011;24269;51.894;4.622;2023-02-28T04:19:58;5.18;;;2.13;;
38499;SDS011;24269;51.894;4.622;2023-02-28T04:22:23;5.05;;;2.38;;
38499;SDS011;24269;51.894;4.622;2023-02-28T04:24:52;4.82;;;2.10;;
38499;SDS011;24269;51.894;4.622;2023-02-28T04:27:19;5.53;;;2.17;;
38499;SDS011;24269;51.894;4.622;2023-02-28T04:29:45;4.13;;;2.13;;
38499;SDS011;24269;51.894;4.622;2023-02-28T04:32:10;5.07;;;3.05;;
38499;SDS011;24269;51.894;4.622;2023-02-28T04:34:36;4.40;;;2.40;;
38499;SDS011;24269;51.894;4.622;2023-02-28T04:37:02;4.13;;;1.90;;
38499;SDS011;24269;51.894;4.622;2023-02-28T04:39:28;5.72;;;2.20;;
38499;SDS011;24269;51.894;4.622;2023-02-28T04:41:54;6.75;;;2.28;;
38499;SDS011;24269;51.894;4.622;2023-02-28T04:44:21;3.00;;;1.88;;
38499;SDS011;24269;51.894;4.622;2023-02-28T04:46:47;4.57;;;2.30;;
38499;SDS011;24269;51.894;4.622;2023-02-28T04:49:13;4.22;;;2.60;;
38499;SDS011;24269;51.894;4.622;2023-02-28T04:51:40;5.00;;;2.25;;
38499;SDS011;24269;51.894;4.622;2023-02-28T04:54:06;7.57;;;3.05;;
38499;SDS011;24269;51.894;4.622;2023-02-28T04:56:33;8.13;;;2.75;;
38499;SDS011;24269;51.894;4.622;2023-02-28T04:58:58;5.07;;;2.35;;
38499;SDS011;24269;51.894;4.622;2023-02-28T05:03:51;6.00;;;2.50;;
38499;SDS011;24269;51.894;4.622;2023-02-28T05:06:19;6.07;;;2.78;;
38499;SDS011;24269;51.894;4.622;2023-02-28T05:08:45;4.95;;;2.70;;
38499;SDS011;24269;51.894;4.622;2023-02-28T05:11:21;7.07;;;2.95;;
38499;SDS011;24269;51.894;4.622;2023-02-28T05:13:49;5.72;;;2.67;;
38499;SDS011;24269;51.894;4.622;2023-02-28T05:16:15;6.13;;;2.65;;
38499;SDS011;24269;51.894;4.622;2023-02-28T05:18:41;6.25;;;2.85;;
38499;SDS011;24269;51.894;4.622;2023-02-28T05:23:57;6.78;;;2.65;;
38499;SDS011;24269;51.894;4.622;2023-02-28T05:26:25;6.65;;;2.50;;
38499;SDS011;24269;51.894;4.622;2023-02-28T05:28:53;7.15;;;3.17;;
38499;SDS011;24269;51.894;4.622;2023-02-28T05:31:18;9.25;;;3.28;;
38499;SDS011;24269;51.894;4.622;2023-02-28T05:33:46;5.82;;;3.20;;
38499;SDS011;24269;51.894;4.622;2023-02-28T05:36:12;4.78;;;2.78;;
38499;SDS011;24269;51.894;4.622;2023-02-28T05:38:37;6.43;;;3.13;;
38499;SDS011;24269;51.894;4.622;2023-02-28T05:41:09;5.40;;;2.67;;
38499;SDS011;24269;51.894;4.622;2023-02-28T05:43:36;7.97;;;2.88;;
38499;SDS011;24269;51.894;4.622;2023-02-28T05:46:03;9.10;;;3.28;;
38499;SDS011;24269;51.894;4.622;2023-02-28T05:48:33;7.82;;;3.08;;
38499;SDS011;24269;51.894;4.622;2023-02-28T05:51:00;8.20;;;3.50;;
38499;SDS011;24269;51.894;4.622;2023-02-28T05:53:27;7.28;;;3.10;;
38499;SDS011;24269;51.894;4.622;2023-02-28T05:55:53;5.13;;;3.30;;
38499;SDS011;24269;51.894;4.622;2023-02-28T05:58:18;7.55;;;3.00;;
38499;SDS011;24269;51.894;4.622;2023-02-28T06:00:44;6.55;;;3.35;;
38499;SDS011;24269;51.894;4.622;2023-02-28T06:03:10;7.13;;;2.88;;
38499;SDS011;24269;51.894;4.622;2023-02-28T06:05:36;5.15;;;2.75;;
38499;SDS011;24269;51.894;4.622;2023-02-28T06:08:03;6.03;;;2.90;;
38499;SDS011;24269;51.894;4.622;2023-02-28T06:10:31;8.52;;;2.97;;
38499;SDS011;24269;51.894;4.622;2023-02-28T06:13:00;4.20;;;2.30;;
38499;SDS011;24269;51.894;4.622;2023-02-28T06:15:30;4.95;;;2.30;;
38499;SDS011;24269;51.894;4.622;2023-02-28T06:17:56;5.28;;;2.20;;
38499;SDS011;24269;51.894;4.622;2023-02-28T06:20:22;5.68;;;2.60;;
38499;SDS011;24269;51.894;4.622;2023-02-28T06:22:48;6.32;;;2.42;;
38499;SDS011;24269;51.894;4.622;2023-02-28T06:25:16;4.07;;;2.08;;
38499;SDS011;24269;51.894;4.622;2023-02-28T06:27:42;4.95;;;2.38;;
38499;SDS011;24269;51.894;4.622;2023-02-28T06:30:08;5.35;;;2.55;;
38499;SDS011;24269;51.894;4.622;2023-02-28T06:32:35;6.60;;;2.70;;
38499;SDS011;24269;51.894;4.622;2023-02-28T06:35:01;5.07;;;2.47;;
38499;SDS011;24269;51.894;4.622;2023-02-28T06:37:27;5.55;;;2.63;;
38499;SDS011;24269;51.894;4.622;2023-02-28T06:39:53;6.35;;;2.60;;
38499;SDS011;24269;51.894;4.622;2023-02-28T06:42:21;5.32;;;2.53;;
38499;SDS011;24269;51.894;4.622;2023-02-28T06:44:49;5.30;;;2.90;;
38499;SDS011;24269;51.894;4.622;2023-02-28T06:47:15;5.75;;;2.60;;
38499;SDS011;24269;51.894;4.622;2023-02-28T06:49:41;5.68;;;2.75;;
38499;SDS011;24269;51.894;4.622;2023-02-28T06:52:07;6.32;;;2.67;;
38499;SDS011;24269;51.894;4.622;2023-02-28T06:54:33;5.13;;;2.47;;
38499;SDS011;24269;51.894;4.622;2023-02-28T06:56:59;4.40;;;2.13;;
38499;SDS011;24269;51.894;4.622;2023-02-28T06:59:25;4.28;;;1.98;;
38499;SDS011;24269;51.894;4.622;2023-02-28T07:01:50;4.22;;;2.30;;
38499;SDS011;24269;51.894;4.622;2023-02-28T07:04:16;6.60;;;2.55;;
38499;SDS011;24269;51.894;4.622;2023-02-28T07:06:42;6.10;;;2.15;;
38499;SDS011;24269;51.894;4.622;2023-02-28T07:09:08;4.32;;;2.30;;
38499;SDS011;24269;51.894;4.622;2023-02-28T07:11:33;6.53;;;2.28;;
38499;SDS011;24269;51.894;4.622;2023-02-28T07:13:59;6.80;;;2.17;;
38499;SDS011;24269;51.894;4.622;2023-02-28T07:16:25;3.97;;;2.15;;
38499;SDS011;24269;51.894;4.622;2023-02-28T07:18:54;4.70;;;2.17;;
38499;SDS011;24269;51.894;4.622;2023-02-28T07:21:20;3.30;;;2.03;;
38499;SDS011;24269;51.894;4.622;2023-02-28T07:23:46;4.45;;;1.80;;
38499;SDS011;24269;51.894;4.622;2023-02-28T07:26:12;4.18;;;2.50;;
38499;SDS011;24269;51.894;4.622;2023-02-28T07:28:41;6.35;;;2.25;;
38499;SDS011;24269;51.894;4.622;2023-02-28T07:31:07;4.18;;;2.20;;
38499;SDS011;24269;51.894;4.622;2023-02-28T07:33:34;3.60;;;2.10;;
38499;SDS011;24269;51.894;4.622;2023-02-28T07:36:04;5.40;;;2.47;;
38499;SDS011;24269;51.894;4.622;2023-02-28T07:38:33;4.70;;;2.40;;
38499;SDS011;24269;51.894;4.622;2023-02-28T07:41:00;5.53;;;2.50;;
38499;SDS011;24269;51.894;4.622;2023-02-28T07:43:29;4.05;;;2.20;;
38499;SDS011;24269;51.894;4.622;2023-02-28T07:45:55;4.68;;;1.90;;
38499;SDS011;24269;51.894;4.622;2023-02-28T07:48:25;6.22;;;2.78;;
38499;SDS011;24269;51.894;4.622;2023-02-28T07:50:55;7.18;;;3.78;;
38499;SDS011;24269;51.894;4.622;2023-02-28T07:53:21;6.45;;;2.97;;
38499;SDS011;24269;51.894;4.622;2023-02-28T07:55:47;9.00;;;2.63;;
38499;SDS011;24269;51.894;4.622;2023-02-28T07:58:13;5.47;;;2.65;;
38499;SDS011;24269;51.894;4.622;2023-02-28T08:00:38;4.57;;;2.45;;
38499;SDS011;24269;51.894;4.622;2023-02-28T08:03:04;5.00;;;2.22;;
38499;SDS011;24269;51.894;4.622;2023-02-28T08:05:30;5.97;;;2.50;;
38499;SDS011;24269;51.894;4.622;2023-02-28T08:07:55;4.13;;;2.03;;
38499;SDS011;24269;51.894;4.622;2023-02-28T08:10:21;4.20;;;2.33;;
38499;SDS011;24269;51.894;4.622;2023-02-28T08:12:48;4.63;;;2.67;;
38499;SDS011;24269;51.894;4.622;2023-02-28T08:15:14;7.38;;;2.50;;
38499;SDS011;24269;51.894;4.622;2023-02-28T08:17:40;5.10;;;2.28;;
38499;SDS011;24269;51.894;4.622;2023-02-28T08:20:06;4.00;;;2.08;;
38499;SDS011;24269;51.894;4.622;2023-02-28T08:22:35;5.05;;;2.55;;
38499;SDS011;24269;51.894;4.622;2023-02-28T08:25:00;6.35;;;2.55;;
38499;SDS011;24269;51.894;4.622;2023-02-28T08:27:26;5.30;;;2.90;;
38499;SDS011;24269;51.894;4.622;2023-02-28T08:29:51;5.07;;;2.78;;
38499;SDS011;24269;51.894;4.622;2023-02-28T08:32:17;4.30;;;2.38;;
38499;SDS011;24269;51.894;4.622;2023-02-28T08:34:44;6.03;;;2.40;;
38499;SDS011;24269;51.894;4.622;2023-02-28T08:37:09;4.72;;;2.38;;
38499;SDS011;24269;51.894;4.622;2023-02-28T08:39:36;4.85;;;2.65;;
38499;SDS011;24269;51.894;4.622;2023-02-28T08:42:02;6.03;;;3.05;;
38499;SDS011;24269;51.894;4.622;2023-02-28T08:44:28;5.13;;;2.58;;
38499;SDS011;24269;51.894;4.622;2023-02-28T08:46:54;6.93;;;2.50;;
38499;SDS011;24269;51.894;4.622;2023-02-28T08:49:20;8.48;;;2.97;;
38499;SDS011;24269;51.894;4.622;2023-02-28T08:51:45;7.50;;;2.95;;
38499;SDS011;24269;51.894;4.622;2023-02-28T08:54:11;5.38;;;2.65;;
38499;SDS011;24269;51.894;4.622;2023-02-28T08:56:37;6.15;;;2.78;;
38499;SDS011;24269;51.894;4.622;2023-02-28T08:59:04;6.68;;;3.28;;
38499;SDS011;24269;51.894;4.622;2023-02-28T09:01:30;5.50;;;2.95;;
38499;SDS011;24269;51.894;4.622;2023-02-28T09:03:56;4.57;;;2.20;;
38499;SDS011;24269;51.894;4.622;2023-02-28T09:06:25;8.07;;;3.20;;
38499;SDS011;24269;51.894;4.622;2023-02-28T09:08:53;5.07;;;2.45;;
38499;SDS011;24269;51.894;4.622;2023-02-28T09:11:21;5.22;;;2.60;;
38499;SDS011;24269;51.894;4.622;2023-02-28T09:13:47;5.05;;;2.72;;
38499;SDS011;24269;51.894;4.622;2023-02-28T09:16:13;6.45;;;2.90;;
38499;SDS011;24269;51.894;4.622;2023-02-28T09:18:41;7.20;;;2.75;;
38499;SDS011;24269;51.894;4.622;2023-02-28T09:21:08;6.43;;;2.80;;
38499;SDS011;24269;51.894;4.622;2023-02-28T09:23:36;5.78;;;3.25;;
38499;SDS011;24269;51.894;4.622;2023-02-28T09:26:03;8.13;;;3.42;;
38499;SDS011;24269;51.894;4.622;2023-02-28T09:28:29;5.40;;;3.10;;
38499;SDS011;24269;51.894;4.622;2023-02-28T09:30:55;8.45;;;3.05;;
38499;SDS011;24269;51.894;4.622;2023-02-28T09:33:22;5.50;;;2.63;;
38499;SDS011;24269;51.894;4.622;2023-02-28T09:35:48;5.18;;;3.13;;
38499;SDS011;24269;51.894;4.622;2023-02-28T09:38:14;5.47;;;2.90;;
38499;SDS011;24269;51.894;4.622;2023-02-28T09:43:14;8.95;;;2.78;;
38499;SDS011;24269;51.894;4.622;2023-02-28T09:45:42;5.97;;;2.78;;
38499;SDS011;24269;51.894;4.622;2023-02-28T09:48:16;6.28;;;3.00;;
38499;SDS011;24269;51.894;4.622;2023-02-28T09:50:56;4.75;;;2.90;;
38499;SDS011;24269;51.894;4.622;2023-02-28T09:58:57;11.00;;;4.80;;
38499;SDS011;24269;51.894;4.622;2023-02-28T10:03:56;9.05;;;3.53;;
38499;SDS011;24269;51.894;4.622;2023-02-28T10:06:29;5.78;;;2.80;;
38499;SDS011;24269;51.894;4.622;2023-02-28T10:09:02;8.18;;;4.03;;
38499;SDS011;24269;51.894;4.622;2023-02-28T10:11:41;12.13;;;5.97;;
38499;SDS011;24269;51.894;4.622;2023-02-28T10:14:18;8.43;;;5.00;;
38499;SDS011;24269;51.894;4.622;2023-02-28T10:19:34;6.25;;;3.22;;
38499;SDS011;24269;51.894;4.622;2023-02-28T10:25:01;7.10;;;3.80;;
38499;SDS011;24269;51.894;4.622;2023-02-28T10:27:30;6.35;;;3.50;;
38499;SDS011;24269;51.894;4.622;2023-02-28T10:30:00;7.53;;;3.30;;
38499;SDS011;24269;51.894;4.622;2023-02-28T10:32:30;6.78;;;2.80;;
38499;SDS011;24269;51.894;4.622;2023-02-28T10:35:06;5.22;;;2.60;;
38499;SDS011;24269;51.894;4.622;2023-02-28T10:37:37;5.03;;;2.63;;
38499;SDS011;24269;51.894;4.622;2023-02-28T10:40:06;4.25;;;2.30;;
38499;SDS011;24269;51.894;4.622;2023-02-28T10:43:03;4.63;;;2.10;;
38499;SDS011;24269;51.894;4.622;2023-02-28T10:45:31;5.07;;;2.13;;
38499;SDS011;24269;51.894;4.622;2023-02-28T10:48:33;6.18;;;1.90;;
38499;SDS011;24269;51.894;4.622;2023-02-28T10:50:56;4.70;;;1.83;;
38499;SDS011;24269;51.894;4.622;2023-02-28T11:01:46;3.13;;;1.38;;
38499;SDS011;24269;51.894;4.622;2023-02-28T11:09:41;2.90;;;1.33;;
38499;SDS011;24269;51.894;4.622;2023-02-28T11:15:23;2.03;;;1.20;;
38499;SDS011;24269;51.894;4.622;2023-02-28T11:20:38;2.85;;;1.40;;
38499;SDS011;24269;51.894;4.622;2023-02-28T11:23:04;1.80;;;1.30;;
38499;SDS011;24269;51.894;4.622;2023-02-28T11:25:36;4.47;;;1.80;;
38499;SDS011;24269;51.894;4.622;2023-02-28T11:28:04;4.18;;;1.50;;
38499;SDS011;24269;51.894;4.622;2023-02-28T11:30:49;5.30;;;1.52;;
38499;SDS011;24269;51.894;4.622;2023-02-28T11:36:28;2.30;;;1.25;;
38499;SDS011;24269;51.894;4.622;2023-02-28T11:39:00;2.08;;;1.25;;
38499;SDS011;24269;51.894;4.622;2023-02-28T11:41:44;2.60;;;1.50;;
38499;SDS011;24269;51.894;4.622;2023-02-28T11:50:19;2.40;;;1.23;;
38499;SDS011;24269;51.894;4.622;2023-02-28T11:52:56;2.88;;;1.33;;
38499;SDS011;24269;51.894;4.622;2023-02-28T11:55:35;2.37;;;1.20;;
38499;SDS011;24269;51.894;4.622;2023-02-28T12:06:38;1.60;;;1.02;;
38499;SDS011;24269;51.894;4.622;2023-02-28T12:09:34;2.67;;;1.13;;
38499;SDS011;24269;51.894;4.622;2023-02-28T12:12:19;1.48;;;0.98;;
38499;SDS011;24269;51.894;4.622;2023-02-28T12:20:40;2.60;;;1.30;;
38499;SDS011;24269;51.894;4.622;2023-02-28T12:26:38;3.92;;;1.42;;
38499;SDS011;24269;51.894;4.622;2023-02-28T12:32:12;2.55;;;1.23;;
38499;SDS011;24269;51.894;4.622;2023-02-28T12:34:43;4.20;;;1.25;;
38499;SDS011;24269;51.894;4.622;2023-02-28T12:37:17;2.20;;;1.17;;
38499;SDS011;24269;51.894;4.622;2023-02-28T12:39:54;2.85;;;1.23;;
38499;SDS011;24269;51.894;4.622;2023-02-28T12:45:03;1.95;;;1.27;;
38499;SDS011;24269;51.894;4.622;2023-02-28T12:50:03;1.60;;;0.95;;
38499;SDS011;24269;51.894;4.622;2023-02-28T12:52:39;1.90;;;1.15;;
38499;SDS011;24269;51.894;4.622;2023-02-28T13:03:45;2.22;;;1.50;;
38499;SDS011;24269;51.894;4.622;2023-02-28T13:09:39;4.43;;;1.67;;
38499;SDS011;24269;51.894;4.622;2023-02-28T13:12:15;3.95;;;1.40;;
38499;SDS011;24269;51.894;4.622;2023-02-28T13:14:41;2.72;;;1.30;;
38499;SDS011;24269;51.894;4.622;2023-02-28T13:19:46;4.55;;;1.33;;
38499;SDS011;24269;51.894;4.622;2023-02-28T13:22:40;2.85;;;1.20;;
38499;SDS011;24269;51.894;4.622;2023-02-28T13:28:10;2.53;;;1.20;;
38499;SDS011;24269;51.894;4.622;2023-02-28T13:38:44;2.28;;;1.20;;
38499;SDS011;24269;51.894;4.622;2023-02-28T13:46:31;1.83;;;1.20;;
38499;SDS011;24269;51.894;4.622;2023-02-28T13:57:27;4.32;;;1.33;;
38499;SDS011;24269;51.894;4.622;2023-02-28T14:07:56;2.08;;;1.27;;
38499;SDS011;24269;51.894;4.622;2023-02-28T14:10:27;2.20;;;1.20;;
38499;SDS011;24269;51.894;4.622;2023-02-28T14:13:00;3.35;;;1.30;;
38499;SDS011;24269;51.894;4.622;2023-02-28T14:16:02;2.83;;;1.50;;
38499;SDS011;24269;51.894;4.622;2023-02-28T14:27:05;2.85;;;1.25;;
38499;SDS011;24269;51.894;4.622;2023-02-28T14:37:43;2.75;;;1.30;;
38499;SDS011;24269;51.894;4.622;2023-02-28T14:40:17;4.20;;;1.45;;
38499;SDS011;24269;51.894;4.622;2023-02-28T14:43:02;1.67;;;1.10;;
38499;SDS011;24269;51.894;4.622;2023-02-28T14:45:31;2.17;;;1.20;;
38499;SDS011;24269;51.894;4.622;2023-02-28T14:47:59;2.92;;;1.25;;
38499;SDS011;24269;51.894;4.622;2023-02-28T14:50:31;2.55;;;1.50;;
38499;SDS011;24269;51.894;4.622;2023-02-28T14:53:02;2.67;;;1.30;;
38499;SDS011;24269;51.894;4.622;2023-02-28T14:55:30;3.28;;;1.33;;
38499;SDS011;24269;51.894;4.622;2023-02-28T14:58:01;3.00;;;1.27;;
38499;SDS011;24269;51.894;4.622;2023-02-28T15:02:59;2.25;;;1.20;;
38499;SDS011;24269;51.894;4.622;2023-02-28T15:08:06;2.30;;;1.40;;
38499;SDS011;24269;51.894;4.622;2023-02-28T15:10:39;3.45;;;1.52;;
38499;SDS011;24269;51.894;4.622;2023-02-28T15:13:12;2.35;;;1.40;;
38499;SDS011;24269;51.894;4.622;2023-02-28T15:18:07;4.07;;;1.70;;
38499;SDS011;24269;51.894;4.622;2023-02-28T15:20:58;3.10;;;1.67;;
38499;SDS011;24269;51.894;4.622;2023-02-28T15:23:29;3.08;;;1.50;;
38499;SDS011;24269;51.894;4.622;2023-02-28T15:25:56;3.13;;;1.60;;
38499;SDS011;24269;51.894;4.622;2023-02-28T15:28:23;3.13;;;1.60;;
38499;SDS011;24269;51.894;4.622;2023-02-28T15:30:53;3.65;;;1.60;;
38499;SDS011;24269;51.894;4.622;2023-02-28T15:33:28;2.67;;;1.58;;
38499;SDS011;24269;51.894;4.622;2023-02-28T15:36:11;3.63;;;1.52;;
38499;SDS011;24269;51.894;4.622;2023-02-28T15:41:04;2.00;;;1.35;;
38499;SDS011;24269;51.894;4.622;2023-02-28T15:43:36;2.78;;;1.60;;
38499;SDS011;24269;51.894;4.622;2023-02-28T15:46:10;4.85;;;2.05;;
38499;SDS011;24269;51.894;4.622;2023-02-28T15:48:51;6.20;;;2.20;;
38499;SDS011;24269;51.894;4.622;2023-02-28T15:51:20;5.43;;;1.60;;
38499;SDS011;24269;51.894;4.622;2023-02-28T15:54:02;4.90;;;1.80;;
38499;SDS011;24269;51.894;4.622;2023-02-28T15:56:31;4.72;;;2.08;;
38499;SDS011;24269;51.894;4.622;2023-02-28T15:59:06;3.83;;;1.80;;
38499;SDS011;24269;51.894;4.622;2023-02-28T16:01:38;4.80;;;2.20;;
38499;SDS011;24269;51.894;4.622;2023-02-28T16:04:06;3.67;;;1.80;;
38499;SDS011;24269;51.894;4.622;2023-02-28T16:06:39;3.60;;;1.73;;
38499;SDS011;24269;51.894;4.622;2023-02-28T16:09:14;3.60;;;1.60;;
38499;SDS011;24269;51.894;4.622;2023-02-28T16:11:42;3.30;;;1.67;;
38499;SDS011;24269;51.894;4.622;2023-02-28T16:14:17;3.85;;;1.77;;
38499;SDS011;24269;51.894;4.622;2023-02-28T16:16:46;2.25;;;1.52;;
38499;SDS011;24269;51.894;4.622;2023-02-28T16:19:13;3.10;;;1.60;;
38499;SDS011;24269;51.894;4.622;2023-02-28T16:21:39;5.10;;;1.60;;
38499;SDS011;24269;51.894;4.622;2023-02-28T16:24:05;3.03;;;1.90;;
38499;SDS011;24269;51.894;4.622;2023-02-28T16:26:31;3.45;;;1.88;;
38499;SDS011;24269;51.894;4.622;2023-02-28T16:28:59;3.60;;;1.85;;
38499;SDS011;24269;51.894;4.622;2023-02-28T16:31:25;3.58;;;1.90;;
38499;SDS011;24269;51.894;4.622;2023-02-28T16:33:52;3.28;;;1.85;;
38499;SDS011;24269;51.894;4.622;2023-02-28T16:36:20;3.45;;;1.80;;
38499;SDS011;24269;51.894;4.622;2023-02-28T16:38:49;3.25;;;1.77;;
38499;SDS011;24269;51.894;4.622;2023-02-28T16:41:19;4.30;;;1.98;;
38499;SDS011;24269;51.894;4.622;2023-02-28T16:43:48;3.78;;;1.70;;
38499;SDS011;24269;51.894;4.622;2023-02-28T16:46:16;3.00;;;1.60;;
38499;SDS011;24269;51.894;4.622;2023-02-28T16:48:45;3.85;;;2.00;;
38499;SDS011;24269;51.894;4.622;2023-02-28T16:51:14;3.08;;;1.70;;
38499;SDS011;24269;51.894;4.622;2023-02-28T16:53:41;4.30;;;1.83;;
38499;SDS011;24269;51.894;4.622;2023-02-28T16:56:11;3.78;;;2.10;;
38499;SDS011;24269;51.894;4.622;2023-02-28T16:58:49;3.70;;;2.28;;
38499;SDS011;24269;51.894;4.622;2023-02-28T17:01:16;4.82;;;2.10;;
38499;SDS011;24269;51.894;4.622;2023-02-28T17:03:45;8.10;;;2.78;;
38499;SDS011;24269;51.894;4.622;2023-02-28T17:06:29;5.13;;;2.47;;
38499;SDS011;24269;51.894;4.622;2023-02-28T17:08:56;4.28;;;2.13;;
38499;SDS011;24269;51.894;4.622;2023-02-28T17:11:23;4.35;;;2.30;;
38499;SDS011;24269;51.894;4.622;2023-02-28T17:13:50;5.55;;;2.40;;
38499;SDS011;24269;51.894;4.622;2023-02-28T17:16:26;4.35;;;2.60;;
38499;SDS011;24269;51.894;4.622;2023-02-28T17:18:54;3.88;;;2.30;;
38499;SDS011;24269;51.894;4.622;2023-02-28T17:21:22;5.22;;;2.65;;
38499;SDS011;24269;51.894;4.622;2023-02-28T17:23:47;4.10;;;2.30;;
38499;SDS011;24269;51.894;4.622;2023-02-28T17:26:17;6.65;;;2.80;;
38499;SDS011;24269;51.894;4.622;2023-02-28T17:28:46;5.10;;;2.60;;
38499;SDS011;24269;51.894;4.622;2023-02-28T17:31:13;6.60;;;3.50;;
38499;SDS011;24269;51.894;4.622;2023-02-28T17:33:39;7.63;;;3.85;;
38499;SDS011;24269;51.894;4.622;2023-02-28T17:36:06;6.57;;;3.30;;
38499;SDS011;24269;51.894;4.622;2023-02-28T17:38:34;6.10;;;2.92;;
38499;SDS011;24269;51.894;4.622;2023-02-28T17:41:00;6.88;;;3.58;;
38499;SDS011;24269;51.894;4.622;2023-02-28T17:43:26;5.15;;;2.95;;
38499;SDS011;24269;51.894;4.622;2023-02-28T17:45:53;4.90;;;3.10;;
38499;SDS011;24269;51.894;4.622;2023-02-28T17:48:19;6.40;;;3.30;;
38499;SDS011;24269;51.894;4.622;2023-02-28T17:50:44;7.43;;;3.10;;
38499;SDS011;24269;51.894;4.622;2023-02-28T17:53:10;6.55;;;3.50;;
38499;SDS011;24269;51.894;4.622;2023-02-28T17:55:36;6.05;;;3.10;;
38499;SDS011;24269;51.894;4.622;2023-02-28T17:58:02;6.40;;;3.30;;
38499;SDS011;24269;51.894;4.622;2023-02-28T18:00:28;6.00;;;3.25;;
38499;SDS011;24269;51.894;4.622;2023-02-28T18:02:54;8.48;;;3.08;;
38499;SDS011;24269;51.894;4.622;2023-02-28T18:05:19;6.03;;;3.55;;
38499;SDS011;24269;51.894;4.622;2023-02-28T18:07:45;4.90;;;3.00;;
38499;SDS011;24269;51.894;4.622;2023-02-28T18:10:13;7.88;;;3.03;;
38499;SDS011;24269;51.894;4.622;2023-02-28T18:12:44;5.32;;;3.22;;
38499;SDS011;24269;51.894;4.622;2023-02-28T18:15:11;6.20;;;3.05;;